Nearby METAR Reports

 

KRDU - Raleigh-Durham, NC, USA
Distance from station: NE 9mi, 14km
Updated: Wed, 05-Oct-2022 2:51pm EDT
Few Clouds
Few Clouds
 Wind from N
Wind: N 6 mph , 9 km/h
Temperature: 73°F , 23°C
Dew Point: 48°F , 9°C
Humidity: 41%
Barometer: 1014.6 hPa
Clouds: Few Clouds
Visibility: 10 miles , 16 km
Cloud details: Few Clouds 5500 ft
2022/10/05 18:51 KRDU 051851Z 36005KT 10SM FEW055 23/09 A2996 RMK AO2 SLP143 T02330094
KLHZ - Louisburg, NC, USA
Distance from station: N 9mi, 14km
Updated: Wed, 05-Oct-2022 3:35pm EDT
Clear
Clear
 Wind from N
Wind: N 9 mph , 15 km/h
Temperature: 70°F , 21°C
Dew Point: 52°F , 11°C
Humidity: 53%
Barometer: 1014.9 hPa
Clouds: Clear
Visibility: 10 miles , 16 km
2022/10/05 19:35 KLHZ 051935Z AUTO 36008KT 10SM CLR 21/11 A2997 RMK AO2
 
KJNX - Smithfield, NC, USA
Distance from station: NNW 14mi, 23km
Updated: Wed, 05-Oct-2022 3:35pm EDT
Clear
Clear
 Wind from N
Wind: N 5 mph , 7 km/h
Temperature: 73°F , 23°C
Dew Point: 52°F , 11°C
Humidity: 47%
Barometer: 1014.2 hPa
Clouds: Clear
Visibility: 10 miles , 16 km
2022/10/05 19:35 KJNX 051935Z AUTO 36004KT 10SM CLR 23/11 A2995 RMK AO2
KHRJ - Erwin, NC, USA
Distance from station: ENE 12mi, 19km
Updated: Wed, 05-Oct-2022 3:35pm EDT
Clear
Clear
 Wind from NW
Wind: NW 5 mph , 7 km/h
Temperature: 72°F , 22°C
Dew Point: 50°F , 10°C
Humidity: 47%
Barometer: 1014.9 hPa
Clouds: Clear
Visibility: 10 miles , 16 km
2022/10/05 19:35 KHRJ 051935Z AUTO 31004KT 10SM CLR 22/10 A2997 RMK AO2 T02210098
 
KTTA - Sanford, NC, USA
Distance from station: NNW 31mi, 50km
Updated: Wed, 05-Oct-2022 3:35pm EDT
Clear
Clear
 Wind from WNW
Wind: WNW 7 mph , 11 km/h
Temperature: 73°F , 23°C
Dew Point: 46°F , 8°C
Humidity: 38%
Barometer: 1014.6 hPa
Clouds: Clear
Visibility: 10 miles , 16 km
2022/10/05 19:35 KTTA 051935Z AUTO 29006KT 10SM CLR 23/08 A2996 RMK AO2 T02270084
KSCR - Siler City, NC, USA
Distance from station: NW 21mi, 34km
Updated: Tue, 04-Oct-2022 1:55am EDT
NOT Current
Mostly cloudy
Mostly cloudy
 Wind from calm
Wind: Calm
Temperature: 45°F , 7°C
Dew Point: 45°F , 7°C
Humidity: 100%
Barometer: 1020.3 hPa
Clouds: Mostly cloudy
Visibility: 10 miles , 16 km
Cloud details: Mostly cloudy 5000 ft
2022/10/04 05:55 KSCR 040555Z AUTO 00000KT 10SM BKN050 07/07 A3013 RMK AO2 T00710065 10130 20054 401950054